Flight Track Log - Related Links

Times and Time Zones

All times are in EDT time to prevent confusion due to time zone crossing. See the FDX1482 flight status page for this flight to view local times or setup timezone preferences in your user account.


Time Position Orientation Groundspeed Altitude Reporting Facility
EDT Latitude Longitude Course Direction KTS MPH feet Rate Location/Type
Thu 04:27:02 AM 35.0167 -89.9667 180° South 155 178 1,500  Level Memphis TRACON
Thu 04:28:02 AM 34.9833 -89.9667 180° South 202 232 3,400 3,053 Climbing Memphis TRACON
Thu 04:28:56 AM 34.9333 -89.9167 141° Southeast 265 305 7,300 4,200 Climbing Memphis TRACON
Thu 04:30:32 AM 34.9581 -89.7794 78° East 269 310 13,900 3,923 Climbing Memphis Center
Thu 04:31:32 AM 35.0033 -89.6853 60° Northeast 294 338 17,500 2,900 Climbing Memphis Center
Thu 04:32:32 AM 35.0467 -89.5808 63° Northeast 327 376 19,700 1,700 Climbing Memphis Center
Thu 04:33:32 AM 35.0917 -89.4739 63° Northeast 363 418 20,900 1,950 Climbing Memphis Center
Thu 04:34:32 AM 35.1511 -89.3386 62° Northeast 421 484 23,600 2,650 Climbing Memphis Center
Thu 04:35:32 AM 35.2064 -89.2008 64° Northeast 448 516 26,200 2,450 Climbing Memphis Center
Thu 04:36:32 AM 35.2592 -89.0525 66° East 466 536 28,500 2,350 Climbing Memphis Center
Thu 04:37:32 AM 35.3139 -88.9017 66° East 476 548 30,900 467 Climbing Memphis Center
Thu 04:43:22 AM 35.6360 -88.0010 66° East 35,000 317 Climbing FlightAware ADS-B
Thu 04:44:02 AM 35.6720 -87.8990 66° East 35,000  Level FlightAware ADS-B
Thu 04:44:37 AM 35.6990 -87.8220 67° East 35,000  Level FlightAware ADS-B
Thu 04:45:32 AM 35.7510 -87.6730 67° East 35,000  Level FlightAware ADS-B
Thu 04:46:12 AM 35.7870 -87.5720 66° East 35,000  Level FlightAware ADS-B
Thu 04:46:52 AM 35.8220 -87.4710 67° East 35,000  Level FlightAware ADS-B
Thu 04:47:37 AM 35.8590 -87.3610 67° East 35,000  Level FlightAware ADS-B
Thu 04:48:17 AM 35.8940 -87.2600 67° East 35,000  Level FlightAware ADS-B
Thu 04:48:57 AM 35.9270 -87.1620 67° East 35,000  Level FlightAware ADS-B
Thu 04:49:42 AM 35.9670 -87.0460 67° East 35,000  Level FlightAware ADS-B
Thu 04:50:22 AM 36.0020 -86.9450 67° East 35,000  Level FlightAware ADS-B
Thu 04:50:28 AM 36.0081 -86.9271 67° East 473 544 35,000  Level FlightAware ADS-B
Thu 04:50:59 AM 36.0338 -86.8509 67° East 483 556 35,000  Level FlightAware ADS-B
Thu 04:51:29 AM 36.0592 -86.7760 67° East 463 533 35,000  Level FlightAware ADS-B
Thu 04:51:59 AM 36.0848 -86.7001 67° East 464 534 35,000  Level FlightAware ADS-B
Thu 04:52:29 AM 36.1098 -86.6258 67° East 469 540 35,000  Level FlightAware ADS-B
Thu 04:53:11 AM 36.1447 -86.5221 67° East 472 543 35,000  Level FlightAware ADS-B
Thu 04:53:44 AM 36.1720 -86.4406 67° East 459 528 35,000  Level FlightAware ADS-B
Thu 04:54:15 AM 36.1972 -86.3652 67° East 459 528 35,000  Level FlightAware ADS-B
Thu 04:54:45 AM 36.2217 -86.2912 68° East 464 534 35,000  Level FlightAware ADS-B
Thu 04:55:16 AM 36.2475 -86.2137 68° East 457 526 35,000  Level FlightAware ADS-B
Thu 04:55:47 AM 36.2726 -86.1383 68° East 475 547 35,000  Level FlightAware ADS-B
Thu 04:56:17 AM 36.2975 -86.0631 68° East 460 529 35,000  Level FlightAware ADS-B
Thu 04:57:19 AM 36.3478 -85.9109 68° East 467 537 35,000  Level FlightAware ADS-B
Thu 04:57:50 AM 36.3723 -85.8355 68° East 468 539 35,000  Level FlightAware ADS-B
Thu 04:58:20 AM 36.3972 -85.7610 67° East 467 537 35,000  Level FlightAware ADS-B
Thu 04:58:53 AM 36.4235 -85.6791 68° East 462 532 35,000  Level FlightAware ADS-B
Thu 04:59:36 AM 36.4585 -85.5713 68° East 463 533 35,000  Level FlightAware ADS-B
Thu 05:00:13 AM 36.4883 -85.4795 68° East 462 532 35,000  Level FlightAware ADS-B
Thu 05:00:44 AM 36.5127 -85.4034 68° East 468 539 35,000  Level FlightAware ADS-B
Thu 05:01:15 AM 36.5378 -85.3262 68° East 475 547 35,000  Level FlightAware ADS-B
Thu 05:01:51 AM 36.5671 -85.2352 68° East 458 527 35,000  Level FlightAware ADS-B
Thu 05:02:29 AM 36.5972 -85.1415 68° East 476 548 35,000  Level FlightAware ADS-B
Thu 05:02:59 AM 36.6214 -85.0651 68° East 446 513 35,000  Level FlightAware ADS-B
Thu 05:03:31 AM 36.6469 -84.9851 68° East 464 534 35,000  Level FlightAware ADS-B
Thu 05:04:26 AM 36.6902 -84.8488 68° East 466 536 35,000  Level FlightAware ADS-B
Thu 05:04:59 AM 36.7163 -84.7662 68° East 456 525 35,000  Level FlightAware ADS-B
Thu 05:05:29 AM 36.7405 -84.6898 68° East 485 558 35,000  Level FlightAware ADS-B
Thu 05:06:00 AM 36.7644 -84.6136 69° East 474 545 35,000  Level FlightAware ADS-B
Thu 05:06:30 AM 36.7879 -84.5386 69° East 463 533 35,000  Level FlightAware ADS-B
Thu 05:07:00 AM 36.8114 -84.4637 69° East 463 533 35,000  Level FlightAware ADS-B
Thu 05:07:31 AM 36.8356 -84.3863 69° East 470 541 35,000  Level FlightAware ADS-B
Thu 05:08:02 AM 36.8598 -84.3087 69° East 453 521 35,000  Level FlightAware ADS-B
Thu 05:08:33 AM 36.8842 -84.2296 69° East 476 548 35,000  Level FlightAware ADS-B
Thu 05:09:03 AM 36.9072 -84.1555 69° East 466 536 35,000  Level FlightAware ADS-B
Thu 05:09:34 AM 36.9314 -84.0775 69° East 467 537 35,000  Level FlightAware ADS-B
Thu 05:10:04 AM 36.9551 -84.0006 69° East 469 540 35,000  Level FlightAware ADS-B
Thu 05:10:34 AM 36.9783 -83.9247 69° East 466 536 35,000  Level FlightAware ADS-B
Thu 05:11:04 AM 37.0016 -83.8489 69° East 467 537 35,000  Level FlightAware ADS-B
Thu 05:11:44 AM 37.0325 -83.7478 69° East 470 541 35,000  Level FlightAware ADS-B
Thu 05:12:15 AM 37.0564 -83.6691 69° East 482 555 35,000  Level FlightAware ADS-B
Thu 05:12:49 AM 37.0827 -83.5828 69° East 468 539 35,000 424 Level FlightAware ADS-B
Thu 05:13:40 AM 37.1153 -83.4717 69° East 472 543 35,600 857 Climbing Indianapolis Center
Thu 05:14:41 AM 37.1622 -83.3153 69° East 473 544 36,600 689 Climbing Indianapolis Center
Thu 05:15:42 AM 37.2097 -83.1597 69° East 473 544 37,000 62 Climbing Indianapolis Center
Thu 05:21:08 AM 37.4589 -82.3120 69° East 468 539 37,000  Level FlightAware ADS-B
Thu 05:21:39 AM 37.4819 -82.2325 70° East 467 537 37,000  Level FlightAware ADS-B
Thu 05:22:25 AM 37.5159 -82.1142 70° East 469 540 37,000  Level FlightAware ADS-B
Thu 05:22:56 AM 37.5384 -82.0360 70° East 451 519 37,000  Level FlightAware ADS-B
Thu 05:23:28 AM 37.5619 -81.9534 70° East 472 543 37,000  Level FlightAware ADS-B
Thu 05:24:15 AM 37.5963 -81.8331 70° East 467 537 37,000  Level FlightAware ADS-B
Thu 05:24:45 AM 37.6187 -81.7537 70° East 469 540 37,000  Level FlightAware ADS-B
Thu 05:25:15 AM 37.6412 -81.6742 70° East 483 556 37,000  Level FlightAware ADS-B
Thu 05:25:45 AM 37.6632 -81.5965 70° East 479 551 37,000  Level FlightAware ADS-B
Thu 05:26:16 AM 37.6859 -81.5162 70° East 483 556 37,000  Level FlightAware ADS-B
Thu 05:26:47 AM 37.7078 -81.4372 71° East 466 536 37,000  Level FlightAware ADS-B
Thu 05:27:18 AM 37.7303 -81.3570 70° East 474 545 37,000  Level FlightAware ADS-B
Thu 05:27:49 AM 37.7526 -81.2765 71° East 466 536 37,000  Level FlightAware ADS-B
Thu 05:28:30 AM 37.7827 -81.1689 70° East 477 549 37,000  Level FlightAware ADS-B
Thu 05:29:22 AM 37.8180 -81.0400 71° East 37,000  Level FlightAware ADS-B
Thu 05:29:38 AM 37.8311 -80.9933 70° East 472 543 37,000  Level FlightAware ADS-B
Thu 05:30:30 AM 37.8683 -80.8575 71° East 474 545 37,000  Level FlightAware ADS-B
Thu 05:31:01 AM 37.8905 -80.7768 71° East 471 542 37,000  Level FlightAware ADS-B
Thu 05:32:12 AM 37.9380 -80.6040 71° East 37,000  Level FlightAware ADS-B
Thu 05:32:52 AM 37.9680 -80.4930 71° East 37,000  Level FlightAware ADS-B
Thu 05:33:32 AM 37.9950 -80.3910 71° East 37,000  Level FlightAware ADS-B
Thu 05:33:53 AM 38.0081 -80.3419 71° East 470 541 37,000  Level Indianapolis Center
Thu 05:34:33 AM 38.0347 -80.2503 70° East 473 544 37,000  Level Washington Center
Thu 05:35:33 AM 38.0764 -80.0919 71° East 473 544 37,000  Level Washington Center
Thu 05:36:34 AM 38.1119 -79.9175 75° East 474 545 37,000  Level Washington Center
Thu 05:37:34 AM 38.1408 -79.7528 77° East 468 539 37,000  Level Washington Center
Thu 05:38:34 AM 38.1714 -79.5906 76° East 468 539 37,000 -1,369 Level Washington Center
Thu 05:44:02 AM 38.3250 -78.7510 76° East 27,000 -1,452 Descending FlightAware ADS-B
Thu 05:44:57 AM 38.3740 -78.6170 65° Northeast 25,300 -1,266 Descending FlightAware ADS-B
Thu 05:45:27 AM 38.4030 -78.5360 65° Northeast 24,500 -1,214 Descending FlightAware ADS-B
Thu 05:46:07 AM 38.4400 -78.4320 66° East 23,700 -1,194 Descending FlightAware ADS-B
Thu 05:46:52 AM 38.4760 -78.3310 65° Northeast 22,900 -1,193 Descending FlightAware ADS-B
Thu 05:48:22 AM 38.5610 -78.0920 65° Northeast 20,900 -1,205 Descending FlightAware ADS-B
Thu 05:49:12 AM 38.6010 -77.9780 66° East 19,900 -1,176 Descending FlightAware ADS-B
Thu 05:49:52 AM 38.6340 -77.8830 66° East 19,100 -1,173 Descending FlightAware ADS-B
Thu 05:50:37 AM 38.6470 -77.7730 81° East 18,400 -1,170 Descending FlightAware ADS-B
Thu 05:51:17 AM 38.6520 -77.6730 86° East 17,800 -1,209 Descending FlightAware ADS-B
Thu 05:52:02 AM 38.6590 -77.5640 85° East 16,700 -1,262 Descending FlightAware ADS-B
Thu 05:52:42 AM 38.6640 -77.4720 86° East 16,100 -1,213 Descending FlightAware ADS-B
Thu 05:53:22 AM 38.6700 -77.3750 85° East 15,500 -1,297 Descending FlightAware ADS-B
Thu 05:54:07 AM 38.6760 -77.2710 86° East 14,900 -1,444 Descending FlightAware ADS-B
Thu 05:54:40 AM 38.6799 -77.1962 86° East 13,900 -1,905 Descending FlightAware ADS-B
Thu 05:55:10 AM 38.6837 -77.1326 86° East 355 409 12,900 -767 Descending FlightAware ADS-B
Thu 05:56:12 AM 38.6910 -77.0110 86° East 11,600 -728 Descending FlightAware ADS-B
Thu 05:56:52 AM 38.6940 -76.9350 87° East 10,400 -691 Descending FlightAware ADS-B
Thu 05:57:22 AM 38.6960 -76.8750 88° East 10,000 -639 Descending FlightAware ADS-B
Thu 05:57:52 AM 38.6980 -76.8280 87° East 9,700 -633 Descending FlightAware ADS-B
Thu 05:58:17 AM 38.7000 -76.7830 87° East 9,200 -635 Descending FlightAware ADS-B
Thu 05:58:47 AM 38.7050 -76.7350 82° East 8,600 -616 Descending FlightAware ADS-B
Thu 05:59:07 AM 38.7180 -76.7080 58° Northeast 8,100 -593 Descending FlightAware ADS-B
Thu 05:59:42 AM 38.7410 -76.6590 59° Northeast 7,100 -567 Descending FlightAware ADS-B
Thu 06:00:07 AM 38.7570 -76.6260 58° Northeast 6,600 -509 Descending FlightAware ADS-B
Thu 06:00:37 AM 38.7750 -76.5840 61° Northeast 5,800 -483 Descending FlightAware ADS-B
Thu 06:01:02 AM 38.7870 -76.5560 61° Northeast 5,200 -429 Descending FlightAware ADS-B
Thu 06:01:12 AM 38.7960 -76.5400 54° Northeast 4,900 -387 Descending FlightAware ADS-B
Thu 06:01:37 AM 38.8240 -76.5270 20° North 4,600 -364 Descending FlightAware ADS-B
Thu 06:02:02 AM 38.8550 -76.5380 345° North 4,600 -348 Level FlightAware ADS-B
Thu 06:02:27 AM 38.8830 -76.5520 339° North 4,600 -364 Level FlightAware ADS-B
Thu 06:02:57 AM 38.9190 -76.5700 339° North 4,600 -382 Level FlightAware ADS-B
Thu 06:03:27 AM 38.9560 -76.5860 341° North 4,600 -405 Level FlightAware ADS-B
Thu 06:03:52 AM 38.9790 -76.6120 319° Northwest 4,600 -431 Level FlightAware ADS-B
Thu 06:04:22 AM 38.9990 -76.6550 301° West 4,600 -456 Level FlightAware ADS-B
Thu 06:04:47 AM 39.0150 -76.6910 300° West 4,200 -490 Descending FlightAware ADS-B
Thu 06:05:17 AM 39.0340 -76.7350 299° West 3,400 -459 Descending FlightAware ADS-B
Thu 06:05:42 AM 39.0500 -76.7710 300° West 2,800 -361 Descending FlightAware ADS-B
Thu 06:06:17 AM 39.0710 -76.8180 300° West 2,600 -278 Descending FlightAware ADS-B
Thu 06:06:42 AM 39.0810 -76.8480 293° West 2,600 -270 Level FlightAware ADS-B
Thu 06:07:12 AM 39.0970 -76.8900 296° West 2,500 -295 Descending FlightAware ADS-B
Thu 06:07:17 AM 39.1020 -76.8950 322° Northwest 2,400 -308 Descending FlightAware ADS-B
Thu 06:07:37 AM 39.1130 -76.9000 341° North 2,100 -288 Descending FlightAware ADS-B
Thu 06:08:07 AM 39.1440 -76.9100 346° North 1,800 -230 Descending FlightAware ADS-B
Thu 06:09:02 AM 39.1800 -76.8770 35° Northeast 1,600 -168 Descending FlightAware ADS-B
Thu 06:09:22 AM 39.1840 -76.8560 76° East 1,600 -145 Level FlightAware ADS-B
Thu 06:09:47 AM 39.1820 -76.8340 97° East 1,600 -173 Level FlightAware ADS-B
Thu 06:10:12 AM 39.1810 -76.8070 93° East 1,500 -228 Descending FlightAware ADS-B
Thu 06:10:32 AM 39.1800 -76.7940 96° East 1,300 -222 Descending FlightAware ADS-B
Thu 06:11:06 AM 39.1833 -76.7667 96° East 118 136 1,300 -383 Level Potomac TRACON
Thu 06:12:06 AM 39.1833 -76.7167 90° East 117 135 700 -600 Descending Potomac TRACON

Login

Don't have an account? Register now (free) for customized features, flight alerts, and more!